createdAt,value
2023-05-19T00:01:19.521Z,12.23
2023-05-19T00:03:54.331Z,11.43
2023-05-19T00:06:25.434Z,8.80
2023-05-19T00:09:00.771Z,9.90
2023-05-19T00:11:28.537Z,8.23
2023-05-19T00:13:56.618Z,9.70
2023-05-19T00:16:24.894Z,8.65
2023-05-19T00:18:53.267Z,9.38
2023-05-19T00:21:21.060Z,10.80
2023-05-19T00:23:48.313Z,6.72
2023-05-19T00:26:15.746Z,10.50
2023-05-19T00:28:42.915Z,8.85
2023-05-19T00:31:10.311Z,8.48
2023-05-19T00:33:37.501Z,8.63
2023-05-19T00:36:05.775Z,9.77
2023-05-19T00:38:33.332Z,9.38
2023-05-19T00:41:00.979Z,10.80
2023-05-19T00:43:28.211Z,11.02
2023-05-19T00:45:55.330Z,10.90
2023-05-19T00:48:22.780Z,11.75
2023-05-19T00:50:50.972Z,14.45
2023-05-19T00:53:19.110Z,12.27
2023-05-19T00:55:46.829Z,13.00
2023-05-19T00:58:14.668Z,15.40
2023-05-19T01:00:42.728Z,9.32
2023-05-19T01:03:13.854Z,12.98
2023-05-19T01:05:42.280Z,15.13
2023-05-19T01:08:09.837Z,9.82
2023-05-19T01:10:37.802Z,10.15
2023-05-19T01:13:05.626Z,12.18
2023-05-19T01:15:40.988Z,7.72
2023-05-19T01:18:16.940Z,15.23
2023-05-19T01:20:48.129Z,13.27
2023-05-19T01:23:36.739Z,8.40
2023-05-19T01:26:04.101Z,12.05
2023-05-19T01:28:50.154Z,9.32
2023-05-19T01:31:18.121Z,11.15
2023-05-19T01:33:45.936Z,12.57
2023-05-19T01:36:14.047Z,12.10
2023-05-19T01:38:41.337Z,9.90
2023-05-19T01:41:09.021Z,7.07
2023-05-19T01:43:36.503Z,12.73
2023-05-19T01:46:03.859Z,9.40
2023-05-19T01:48:31.366Z,9.70
2023-05-19T01:50:58.842Z,9.95
2023-05-19T01:53:26.105Z,10.52
2023-05-19T01:55:54.593Z,9.52
2023-05-19T01:58:21.792Z,12.13
2023-05-19T02:00:48.924Z,11.18
2023-05-19T02:03:34.839Z,10.18
2023-05-19T02:06:08.161Z,10.98
2023-05-19T02:08:42.330Z,12.52
2023-05-19T02:11:21.642Z,12.73
2023-05-19T02:13:51.375Z,9.65
2023-05-19T02:16:19.125Z,14.18
2023-05-19T02:18:48.035Z,12.82
2023-05-19T02:21:15.346Z,8.20
2023-05-19T02:23:42.914Z,11.35
2023-05-19T02:26:10.168Z,11.05
2023-05-19T02:28:37.294Z,8.10
2023-05-19T02:31:10.044Z,10.15
2023-05-19T02:33:37.477Z,11.23
2023-05-19T02:36:04.820Z,9.10
2023-05-19T02:38:32.589Z,8.98
2023-05-19T02:40:59.814Z,8.88
2023-05-19T02:43:27.011Z,13.65
2023-05-19T02:45:54.220Z,11.10
2023-05-19T02:48:21.393Z,11.60
2023-05-19T02:50:48.524Z,9.88
2023-05-19T02:53:15.659Z,9.10
2023-05-19T02:55:43.070Z,15.45
2023-05-19T02:58:10.784Z,9.82
2023-05-19T03:00:37.954Z,13.05
2023-05-19T03:03:05.230Z,12.05
2023-05-19T03:05:32.459Z,12.57
2023-05-19T03:07:59.630Z,11.52
2023-05-19T03:10:26.805Z,13.90
2023-05-19T03:12:54.023Z,9.73
2023-05-19T03:15:23.239Z,9.02
2023-05-19T03:17:50.544Z,11.13
2023-05-19T03:20:17.851Z,10.90
2023-05-19T03:22:45.006Z,9.25
2023-05-19T03:25:12.442Z,11.23
2023-05-19T03:27:39.700Z,13.80
2023-05-19T03:30:07.258Z,9.68
2023-05-19T03:32:37.525Z,10.88
2023-05-19T03:35:05.704Z,10.88
2023-05-19T03:37:33.364Z,12.30
2023-05-19T03:40:00.634Z,11.35
2023-05-19T03:42:27.845Z,10.73
2023-05-19T03:44:55.004Z,10.38
2023-05-19T03:47:22.155Z,8.88
2023-05-19T03:49:49.339Z,9.50
2023-05-19T03:52:17.018Z,8.10
2023-05-19T03:54:44.853Z,9.43
2023-05-19T03:57:12.072Z,8.07
2023-05-19T03:59:41.260Z,12.43
2023-05-19T04:02:08.615Z,9.27
2023-05-19T04:04:37.894Z,10.57
2023-05-19T04:07:05.103Z,9.50
2023-05-19T04:09:35.164Z,14.60
2023-05-19T04:12:02.896Z,8.40
2023-05-19T04:14:30.101Z,11.27
2023-05-19T04:16:57.848Z,11.05
2023-05-19T04:19:25.387Z,13.80
2023-05-19T04:21:52.557Z,11.60
2023-05-19T04:24:19.721Z,10.88
2023-05-19T04:26:47.425Z,14.05
2023-05-19T04:29:17.879Z,7.78
2023-05-19T04:31:45.732Z,8.88
2023-05-19T04:34:12.980Z,7.72
2023-05-19T04:36:40.259Z,7.05
2023-05-19T04:39:09.978Z,9.95
2023-05-19T04:41:40.271Z,9.30
2023-05-19T04:44:09.285Z,10.07
2023-05-19T04:46:36.554Z,9.95
2023-05-19T04:49:03.741Z,10.48
2023-05-19T04:51:31.550Z,13.70
2023-05-19T04:53:59.214Z,14.90
2023-05-19T04:56:27.296Z,13.30
2023-05-19T04:58:54.484Z,13.98
2023-05-19T05:01:25.907Z,10.77
2023-05-19T05:03:59.062Z,9.02
2023-05-19T05:06:26.626Z,10.05
2023-05-19T05:08:53.846Z,10.90
2023-05-19T05:11:21.310Z,11.02
2023-05-19T05:13:48.705Z,11.75
2023-05-19T05:16:16.706Z,13.77
2023-05-19T05:18:45.035Z,7.28
2023-05-19T05:21:12.670Z,8.98
2023-05-19T05:23:39.955Z,12.45
2023-05-19T05:26:10.847Z,8.13
2023-05-19T05:28:37.984Z,10.13
2023-05-19T05:31:05.209Z,8.30
2023-05-19T05:33:32.532Z,10.40
2023-05-19T05:35:59.716Z,11.05
2023-05-19T05:38:26.856Z,10.57
2023-05-19T05:40:53.995Z,8.32
2023-05-19T05:43:21.129Z,11.82
2023-05-19T05:45:48.363Z,8.52
2023-05-19T05:48:15.963Z,8.73
2023-05-19T05:50:44.730Z,9.98
2023-05-19T05:53:16.783Z,14.48
2023-05-19T05:55:44.209Z,11.43
2023-05-19T05:58:11.372Z,11.05
2023-05-19T06:00:38.880Z,15.32
2023-05-19T06:03:06.162Z,8.98
2023-05-19T06:05:33.613Z,10.98
2023-05-19T06:08:00.815Z,8.15
2023-05-19T06:10:29.001Z,8.15
2023-05-19T06:12:56.252Z,12.88
2023-05-19T06:15:23.526Z,8.55
2023-05-19T06:17:50.880Z,8.23
2023-05-19T06:20:18.588Z,9.38
2023-05-19T06:22:45.790Z,9.52
2023-05-19T06:25:13.846Z,5.60
2023-05-19T06:27:41.047Z,8.68
2023-05-19T06:30:08.793Z,9.90
2023-05-19T06:32:36.017Z,8.80
2023-05-19T06:35:03.276Z,6.97
2023-05-19T06:37:30.450Z,6.70
2023-05-19T06:39:57.670Z,9.20
2023-05-19T06:42:25.450Z,8.93
2023-05-19T06:44:53.292Z,7.00
2023-05-19T06:47:20.624Z,5.13
2023-05-19T06:49:55.044Z,4.60
2023-05-19T06:52:22.968Z,5.03
2023-05-19T06:54:50.860Z,8.65
2023-05-19T06:57:18.038Z,5.60
2023-05-19T06:59:46.626Z,6.25
2023-05-19T07:02:14.046Z,5.78
2023-05-19T07:04:42.515Z,6.00
2023-05-19T07:07:09.813Z,6.28
2023-05-19T07:09:37.003Z,6.22
2023-05-19T07:12:04.247Z,6.50
2023-05-19T07:14:31.392Z,6.35
2023-05-19T07:16:58.573Z,4.40
2023-05-19T07:19:25.936Z,11.25
2023-05-19T07:21:53.203Z,8.70
2023-05-19T07:24:21.405Z,7.00
2023-05-19T07:26:48.632Z,4.15
2023-05-19T07:29:15.848Z,4.00
2023-05-19T07:31:43.122Z,7.57
2023-05-19T07:34:10.381Z,5.82
2023-05-19T07:36:37.540Z,4.88
2023-05-19T07:39:04.762Z,4.70
2023-05-19T07:41:32.811Z,6.22
2023-05-19T07:44:01.023Z,4.80
2023-05-19T07:46:28.373Z,4.93
2023-05-19T07:48:55.684Z,6.78
2023-05-19T07:51:22.847Z,7.60
2023-05-19T07:53:50.021Z,7.55
2023-05-19T07:56:17.169Z,6.45
2023-05-19T07:58:44.309Z,7.22
2023-05-19T08:01:13.309Z,6.50
2023-05-19T08:03:40.702Z,8.95
2023-05-19T08:06:07.953Z,7.30
2023-05-19T08:08:35.127Z,8.27
2023-05-19T08:11:03.537Z,7.13
2023-05-19T08:13:31.000Z,7.85
2023-05-19T08:15:59.963Z,10.18
2023-05-19T08:18:27.429Z,6.50
2023-05-19T08:20:54.793Z,8.93
2023-05-19T08:23:22.312Z,7.90
2023-05-19T08:25:49.503Z,8.13
2023-05-19T08:28:16.691Z,9.15
2023-05-19T08:30:43.872Z,6.68
2023-05-19T08:33:11.708Z,11.07
2023-05-19T08:35:38.912Z,7.45
2023-05-19T08:38:06.234Z,7.30
2023-05-19T08:40:34.393Z,6.82
2023-05-19T08:43:01.864Z,6.72
2023-05-19T08:45:33.728Z,7.43
2023-05-19T08:48:01.464Z,7.50
2023-05-19T08:50:30.853Z,8.13
2023-05-19T08:53:04.448Z,9.07
2023-05-19T08:55:41.918Z,5.15
2023-05-19T08:58:09.331Z,6.25
2023-05-19T09:00:37.070Z,6.15
2023-05-19T09:03:17.539Z,10.60
2023-05-19T09:05:50.492Z,5.85
2023-05-19T09:08:18.376Z,7.15
2023-05-19T09:10:45.573Z,6.55
2023-05-19T09:13:12.752Z,8.38
2023-05-19T09:15:41.191Z,5.35
2023-05-19T09:18:12.554Z,6.53
2023-05-19T09:20:44.070Z,9.70
2023-05-19T09:23:18.639Z,6.25
2023-05-19T09:25:49.198Z,5.45
2023-05-19T09:28:23.440Z,6.40
2023-05-19T09:30:50.655Z,8.15
2023-05-19T09:33:18.235Z,13.40
2023-05-19T09:35:48.582Z,8.55
2023-05-19T09:38:19.424Z,6.50
2023-05-19T09:40:49.230Z,7.40
2023-05-19T09:43:16.841Z,6.32
2023-05-19T09:45:44.068Z,7.75
2023-05-19T09:48:11.347Z,7.00
2023-05-19T09:50:38.560Z,9.07
2023-05-19T09:53:05.785Z,8.65
2023-05-19T09:55:33.718Z,12.77
2023-05-19T09:58:04.094Z,8.75
2023-05-19T10:00:33.859Z,9.35
2023-05-19T10:03:02.029Z,9.55
2023-05-19T10:05:29.525Z,12.27
2023-05-19T10:07:56.714Z,11.95
2023-05-19T10:10:23.992Z,11.30
2023-05-19T10:12:51.652Z,11.57
2023-05-19T10:15:22.226Z,9.32
2023-05-19T10:17:50.939Z,9.32
2023-05-19T10:20:18.436Z,12.65
2023-05-19T10:22:46.557Z,10.18
2023-05-19T10:25:19.810Z,9.60
2023-05-19T10:27:56.070Z,8.48
2023-05-19T10:30:32.678Z,10.77
2023-05-19T10:33:00.930Z,8.90
2023-05-19T10:35:51.199Z,9.15
2023-05-19T10:38:21.389Z,11.05
2023-05-19T10:41:01.099Z,8.40
2023-05-19T10:43:41.504Z,9.98
2023-05-19T10:46:08.676Z,9.90
2023-05-19T10:48:38.920Z,9.35
2023-05-19T10:51:06.332Z,6.93
2023-05-19T10:53:34.849Z,10.25
2023-05-19T10:56:04.136Z,12.95
2023-05-19T10:58:41.977Z,8.65
2023-05-19T11:01:10.300Z,11.20
2023-05-19T11:03:44.997Z,9.23
2023-05-19T11:06:18.251Z,11.68
2023-05-19T11:08:45.461Z,9.20
2023-05-19T11:11:14.124Z,8.50
2023-05-19T11:13:43.910Z,8.85
2023-05-19T11:16:11.244Z,9.75
2023-05-19T11:18:38.850Z,14.07
2023-05-19T11:21:06.207Z,12.02
2023-05-19T11:23:41.859Z,10.15
2023-05-19T11:26:09.796Z,10.88
2023-05-19T11:28:37.634Z,10.90
2023-05-19T11:31:08.110Z,15.25
2023-05-19T11:33:35.423Z,9.88
2023-05-19T11:36:03.928Z,11.68
2023-05-19T11:38:31.850Z,12.35
2023-05-19T11:40:59.223Z,14.32
2023-05-19T11:43:26.759Z,9.38
2023-05-19T11:45:54.983Z,11.60
2023-05-19T11:48:22.652Z,9.52
2023-05-19T11:50:50.351Z,11.75
2023-05-19T11:53:19.597Z,10.88
2023-05-19T11:55:48.090Z,10.80
2023-05-19T11:58:17.051Z,9.10
2023-05-19T12:00:46.331Z,11.60
2023-05-19T12:03:13.896Z,10.70
2023-05-19T12:05:44.910Z,10.55
2023-05-19T12:08:13.015Z,12.38
2023-05-19T12:10:40.725Z,12.13
2023-05-19T12:13:09.616Z,9.77
2023-05-19T12:15:37.576Z,13.63
2023-05-19T12:18:04.970Z,8.93
2023-05-19T12:20:35.353Z,10.10
2023-05-19T12:23:03.122Z,10.02
2023-05-19T12:25:30.752Z,12.40
2023-05-19T12:27:58.831Z,9.05
2023-05-19T12:30:29.782Z,10.27
2023-05-19T12:33:00.463Z,9.20
2023-05-19T12:35:29.037Z,10.20
2023-05-19T12:37:56.576Z,11.93
2023-05-19T12:40:23.868Z,13.32
2023-05-19T12:42:53.401Z,12.75
2023-05-19T12:45:25.569Z,10.70
2023-05-19T12:47:52.833Z,10.50
2023-05-19T12:50:20.212Z,9.25
2023-05-19T12:52:48.659Z,13.38
2023-05-19T12:55:16.700Z,8.73
2023-05-19T12:57:51.640Z,12.52
2023-05-19T13:03:06.814Z,9.77
2023-05-19T13:05:35.111Z,10.02
2023-05-19T13:08:05.355Z,9.25
2023-05-19T13:10:33.166Z,9.10
2023-05-19T13:13:00.887Z,9.45
2023-05-19T13:15:31.727Z,11.63
2023-05-19T13:17:58.922Z,9.88
2023-05-19T13:20:28.357Z,10.90
2023-05-19T13:22:56.950Z,11.40
2023-05-19T13:25:24.221Z,11.88
2023-05-19T13:27:51.410Z,9.98
2023-05-19T13:30:19.355Z,7.85
2023-05-19T13:32:46.764Z,10.43
2023-05-19T13:35:17.079Z,10.68
2023-05-19T13:37:44.355Z,9.85
2023-05-19T13:40:12.399Z,7.93
2023-05-19T13:42:39.901Z,9.48
2023-05-19T13:45:07.433Z,11.02
2023-05-19T13:47:34.788Z,10.43
2023-05-19T13:50:02.852Z,7.82
2023-05-19T13:52:30.578Z,9.38
2023-05-19T13:54:57.977Z,8.25
2023-05-19T13:57:26.264Z,9.75
2023-05-19T14:00:02.557Z,8.02
2023-05-19T14:02:31.047Z,10.07
2023-05-19T14:04:58.421Z,11.25
2023-05-19T14:07:25.936Z,10.43
2023-05-19T14:09:53.413Z,9.70
2023-05-19T14:12:23.560Z,10.98
2023-05-19T14:14:58.779Z,12.20
2023-05-19T14:17:28.414Z,10.63
2023-05-19T14:19:55.823Z,11.73
2023-05-19T14:22:22.980Z,11.65
2023-05-19T14:24:50.169Z,10.32
2023-05-19T14:27:17.300Z,12.20
2023-05-19T14:29:44.561Z,10.98
2023-05-19T14:32:11.722Z,9.85
2023-05-19T14:34:38.897Z,9.05
2023-05-19T14:37:06.514Z,11.35
2023-05-19T14:39:33.677Z,9.55
2023-05-19T14:42:00.975Z,11.98
2023-05-19T14:44:33.007Z,8.30
2023-05-19T14:47:01.309Z,8.35
2023-05-19T14:49:28.558Z,9.13
2023-05-19T14:51:56.651Z,9.70
2023-05-19T14:54:23.787Z,9.25
2023-05-19T14:56:50.985Z,8.10
2023-05-19T14:59:18.193Z,9.27
2023-05-19T15:01:45.746Z,8.88
2023-05-19T15:04:13.256Z,9.98
2023-05-19T15:06:40.636Z,10.20
2023-05-19T15:09:08.112Z,10.30
2023-05-19T15:11:35.238Z,10.23
2023-05-19T15:14:02.402Z,13.20
2023-05-19T15:16:30.232Z,9.65
2023-05-19T15:18:57.521Z,10.13
2023-05-19T15:21:24.754Z,9.85
2023-05-19T15:23:51.919Z,9.80
2023-05-19T15:26:19.112Z,12.18
2023-05-19T15:28:46.306Z,6.55
2023-05-19T15:31:13.477Z,8.85
2023-05-19T15:33:41.064Z,12.00
2023-05-19T15:36:08.308Z,9.52
2023-05-19T15:38:36.705Z,9.13
2023-05-19T15:41:08.028Z,8.15
2023-05-19T15:43:35.290Z,8.65
2023-05-19T15:46:04.725Z,9.93
2023-05-19T15:48:32.366Z,10.75
2023-05-19T15:50:59.999Z,8.48
2023-05-19T15:53:27.284Z,11.02
2023-05-19T15:55:54.557Z,10.77
2023-05-19T15:58:21.778Z,7.15
2023-05-19T16:00:49.017Z,7.85
2023-05-19T16:03:16.298Z,8.02
2023-05-19T16:05:43.496Z,10.77
2023-05-19T16:08:10.653Z,9.75
2023-05-19T16:10:38.463Z,7.43
2023-05-19T16:13:05.765Z,8.02
2023-05-19T16:15:33.174Z,8.60
2023-05-19T16:18:00.473Z,8.05
2023-05-19T16:20:29.760Z,12.75
2023-05-19T16:22:57.052Z,8.23
2023-05-19T16:25:25.074Z,6.65
2023-05-19T16:27:52.603Z,6.75
2023-05-19T16:30:19.827Z,7.80
2023-05-19T16:32:47.013Z,9.65
2023-05-19T16:35:14.249Z,7.43
2023-05-19T16:37:41.468Z,9.35
2023-05-19T16:40:08.963Z,11.57
2023-05-19T16:42:36.109Z,12.40
2023-05-19T16:45:03.335Z,10.95
2023-05-19T16:47:30.603Z,14.32
2023-05-19T16:49:57.817Z,9.23
2023-05-19T16:52:25.035Z,14.82
2023-05-19T16:54:52.168Z,11.40
2023-05-19T16:57:19.781Z,9.98
2023-05-19T16:59:47.070Z,11.05
2023-05-19T17:02:14.344Z,13.18
2023-05-19T17:04:41.632Z,10.57
2023-05-19T17:07:08.800Z,9.10
2023-05-19T17:09:36.050Z,12.02
2023-05-19T17:12:03.368Z,7.95
2023-05-19T17:14:30.581Z,10.95
2023-05-19T17:16:57.796Z,29.00
2023-05-19T17:19:25.014Z,24.48
2023-05-19T17:21:52.292Z,22.98
2023-05-19T17:24:19.471Z,11.77
2023-05-19T17:26:46.646Z,10.95
2023-05-19T17:29:13.804Z,12.02
2023-05-19T17:31:41.439Z,11.30
2023-05-19T17:34:08.677Z,12.60
2023-05-19T17:36:35.799Z,11.57
2023-05-19T17:39:03.132Z,9.70
2023-05-19T17:41:30.470Z,10.43
2023-05-19T17:43:57.629Z,6.75
2023-05-19T17:46:24.876Z,54.42
2023-05-19T17:48:52.139Z,61.58
2023-05-19T17:51:19.404Z,25.00
2023-05-19T17:53:46.703Z,14.55
2023-05-19T17:56:13.994Z,10.10
2023-05-19T17:58:41.545Z,11.15
2023-05-19T18:01:08.890Z,9.55
2023-05-19T18:03:36.510Z,9.82
2023-05-19T18:06:03.956Z,7.70
2023-05-19T18:08:32.035Z,10.57
2023-05-19T18:10:59.362Z,10.20
2023-05-19T18:13:26.536Z,8.68
2023-05-19T18:15:53.786Z,8.48
2023-05-19T18:18:21.021Z,8.25
2023-05-19T18:20:48.242Z,7.20
2023-05-19T18:23:15.404Z,11.07
2023-05-19T18:25:49.406Z,9.68
2023-05-19T18:28:16.594Z,6.97
2023-05-19T18:30:44.112Z,8.73
2023-05-19T18:33:11.352Z,9.38
2023-05-19T18:35:38.653Z,11.35
2023-05-19T18:38:06.740Z,7.57
2023-05-19T18:40:34.414Z,8.57
2023-05-19T18:43:01.706Z,10.32
2023-05-19T18:45:28.860Z,12.18
2023-05-19T18:47:56.309Z,9.25
2023-05-19T18:50:23.546Z,9.02
2023-05-19T18:52:50.719Z,8.82
2023-05-19T18:55:17.932Z,9.05
2023-05-19T18:57:45.121Z,8.30
2023-05-19T19:00:13.526Z,9.00
2023-05-19T19:02:40.935Z,12.38
2023-05-19T19:05:09.485Z,7.45
2023-05-19T19:07:44.313Z,11.55
2023-05-19T19:10:11.761Z,7.68
2023-05-19T19:12:40.068Z,9.68
2023-05-19T19:15:07.473Z,8.15
2023-05-19T19:17:34.644Z,7.32
2023-05-19T19:20:01.907Z,9.50
2023-05-19T19:22:29.162Z,7.80
2023-05-19T19:24:56.317Z,9.38
2023-05-19T19:27:24.749Z,11.43
2023-05-19T19:29:51.971Z,12.50
2023-05-19T19:32:19.116Z,9.13
2023-05-19T19:34:46.282Z,11.60
2023-05-19T19:37:14.392Z,10.65
2023-05-19T19:39:41.643Z,8.80
2023-05-19T19:42:08.803Z,9.60
2023-05-19T19:44:36.000Z,11.20
2023-05-19T19:47:06.164Z,8.82
2023-05-19T19:49:33.493Z,9.18
2023-05-19T19:52:00.715Z,9.93
2023-05-19T19:54:28.135Z,8.55
2023-05-19T19:56:55.292Z,8.18
2023-05-19T19:59:22.423Z,9.40
2023-05-19T20:01:49.692Z,8.00
2023-05-19T20:04:17.004Z,9.25
2023-05-19T20:06:44.312Z,8.85
2023-05-19T20:09:12.332Z,8.10
2023-05-19T20:11:39.464Z,12.60
2023-05-19T20:14:06.641Z,7.18
2023-05-19T20:16:33.889Z,7.53
2023-05-19T20:19:01.556Z,9.02
2023-05-19T20:21:28.805Z,11.23
2023-05-19T20:23:56.016Z,8.20
2023-05-19T20:26:23.586Z,7.65
2023-05-19T20:28:50.825Z,7.53
2023-05-19T20:31:17.984Z,9.05
2023-05-19T20:33:45.215Z,6.95
2023-05-19T20:36:12.406Z,8.32
2023-05-19T20:38:39.545Z,10.25
2023-05-19T20:41:06.725Z,7.10
2023-05-19T20:43:34.175Z,7.15
2023-05-19T20:46:03.237Z,10.80
2023-05-19T20:48:30.594Z,7.40
2023-05-19T20:50:57.762Z,8.68
2023-05-19T20:53:24.965Z,7.30
2023-05-19T20:55:52.117Z,7.32
2023-05-19T20:58:19.293Z,5.70
2023-05-19T21:00:46.529Z,6.63
2023-05-19T21:03:13.774Z,6.45
2023-05-19T21:05:41.150Z,5.25
2023-05-19T21:08:12.797Z,5.70
2023-05-19T21:10:40.916Z,5.32
2023-05-19T21:13:08.125Z,6.13
2023-05-19T21:15:35.676Z,5.65
2023-05-19T21:18:03.276Z,6.07
2023-05-19T21:20:30.520Z,6.07
2023-05-19T21:22:57.668Z,5.35
2023-05-19T21:25:24.928Z,6.05
2023-05-19T21:27:52.097Z,6.13
2023-05-19T21:30:19.388Z,7.50
2023-05-19T21:32:46.564Z,4.28
2023-05-19T21:35:13.775Z,5.82
2023-05-19T21:37:41.353Z,5.95
2023-05-19T21:40:08.858Z,6.20
2023-05-19T21:42:36.239Z,6.40
2023-05-19T21:45:03.440Z,7.60
2023-05-19T21:47:30.697Z,5.75
2023-05-19T21:49:57.893Z,4.78
2023-05-19T21:52:25.114Z,5.95
2023-05-19T21:54:52.270Z,5.60
2023-05-19T21:57:19.443Z,6.65
2023-05-19T21:59:46.690Z,5.00
2023-05-19T22:02:14.172Z,4.63
2023-05-19T22:04:42.918Z,7.97
2023-05-19T22:07:10.144Z,5.30
2023-05-19T22:09:38.011Z,5.28
2023-05-19T22:12:05.351Z,5.38
2023-05-19T22:14:32.616Z,5.75
2023-05-19T22:16:59.845Z,5.93
2023-05-19T22:19:27.247Z,4.55
2023-05-19T22:22:01.929Z,8.50
2023-05-19T22:24:37.543Z,7.80
2023-05-19T22:27:04.909Z,6.35
2023-05-19T22:29:32.914Z,6.68
2023-05-19T22:32:00.169Z,5.45
2023-05-19T22:34:27.460Z,5.78
2023-05-19T22:36:54.675Z,5.47
2023-05-19T22:39:21.815Z,4.53
2023-05-19T22:41:49.089Z,6.00
2023-05-19T22:44:16.473Z,4.80
2023-05-19T22:46:44.706Z,5.22
2023-05-19T22:49:11.881Z,4.72
2023-05-19T22:51:39.457Z,6.95
2023-05-19T22:54:07.729Z,5.70
2023-05-19T22:56:34.994Z,6.75
2023-05-19T22:59:02.295Z,4.53
2023-05-19T23:01:29.544Z,4.38
2023-05-19T23:03:56.909Z,5.88
2023-05-19T23:06:24.247Z,5.78
2023-05-19T23:08:58.754Z,7.68
2023-05-19T23:11:26.298Z,7.45
2023-05-19T23:13:53.524Z,5.50
2023-05-19T23:16:21.027Z,5.97
2023-05-19T23:18:48.288Z,5.53
2023-05-19T23:21:15.540Z,6.18
2023-05-19T23:23:42.768Z,7.25
2023-05-19T23:26:10.040Z,5.03
2023-05-19T23:28:37.239Z,5.68
2023-05-19T23:31:04.556Z,5.75
2023-05-19T23:33:31.785Z,5.15
2023-05-19T23:36:00.065Z,7.53
2023-05-19T23:38:27.737Z,6.82
2023-05-19T23:40:54.949Z,6.32
2023-05-19T23:43:22.121Z,5.70
2023-05-19T23:45:49.336Z,5.95
2023-05-19T23:48:16.527Z,8.63
2023-05-19T23:50:43.733Z,4.65
2023-05-19T23:53:10.943Z,6.10
2023-05-19T23:55:38.157Z,8.68
2023-05-19T23:58:05.715Z,5.35
